Time;durP1;ratioP1;P1;durP2;ratioP2;P2;SDS_P1;SDS_P2;PMS_P1;PMS_P2;Temp;Humidity;BMP_temperature;BMP_pressure;BME280_temperature;BME280_humidity;BME280_pressure;Samples;Min_cycle;Max_cycle;Signal;HPM_P1;HPM_P2
2023/12/18 00:00:05;;;;;;;37.60;16.07;;;;;;;;;;4908841;29;20738;-72
2023/12/18 00:02:31;;;;;;;43.90;17.67;;;;;;;;;;4916345;29;20324;-73
2023/12/18 00:04:56;;;;;;;47.80;20.13;;;;;;;;;;4915313;29;21348;-74
2023/12/18 00:07:21;;;;;;;51.83;21.10;;;;;;;;;;4903837;29;20734;-72
2023/12/18 00:09:47;;;;;;;52.07;22.20;;;;;;;;;;4921450;29;20229;-72
2023/12/18 00:12:12;;;;;;;57.47;22.83;;;;;;;;;;4924134;29;20337;-73
2023/12/18 00:14:37;;;;;;;60.73;24.67;;;;;;;;;;4908886;29;20229;-73
2023/12/18 00:17:03;;;;;;;67.77;26.50;;;;;;;;;;4925038;29;20229;-73
2023/12/18 00:19:28;;;;;;;60.90;24.80;;;;;;;;;;4925372;29;20726;-73
2023/12/18 00:21:53;;;;;;;55.87;22.93;;;;;;;;;;4926002;29;20218;-74
2023/12/18 00:24:19;;;;;;;55.37;23.43;;;;;;;;;;4925856;29;20320;-73
2023/12/18 00:26:44;;;;;;;61.73;25.17;;;;;;;;;;4927542;29;20217;-73
2023/12/18 00:29:10;;;;;;;61.77;24.13;;;;;;;;;;4910310;29;20228;-73
2023/12/18 00:31:35;;;;;;;58.03;22.97;;;;;;;;;;4907994;29;20244;-74
2023/12/18 00:34:01;;;;;;;50.03;20.97;;;;;;;;;;4926500;29;20230;-73
2023/12/18 00:36:26;;;;;;;56.73;23.47;;;;;;;;;;4924773;29;20320;-74
2023/12/18 00:38:51;;;;;;;57.17;22.63;;;;;;;;;;4925977;29;20230;-74
2023/12/18 00:41:18;;;;;;;60.27;23.23;;;;;;;;;;4926858;29;20234;-74
2023/12/18 00:43:43;;;;;;;65.10;23.40;;;;;;;;;;4927297;29;20229;-73
2023/12/18 00:46:08;;;;;;;55.30;20.90;;;;;;;;;;4924741;29;20237;-73
2023/12/18 00:48:34;;;;;;;62.77;21.33;;;;;;;;;;4926331;29;20292;-73
2023/12/18 00:50:59;;;;;;;50.50;19.23;;;;;;;;;;4925769;29;20233;-74
2023/12/18 00:53:24;;;;;;;43.13;16.87;;;;;;;;;;4926865;29;20740;-73
2023/12/18 00:55:49;;;;;;;35.53;14.77;;;;;;;;;;4925408;29;20296;-74
2023/12/18 00:58:15;;;;;;;36.77;15.07;;;;;;;;;;4926257;29;20743;-73
2023/12/18 01:00:40;;;;;;;37.23;15.10;;;;;;;;;;4924219;29;20218;-74
2023/12/18 01:03:06;;;;;;;33.20;14.33;;;;;;;;;;4905707;29;20234;-74
2023/12/18 01:05:31;;;;;;;32.07;14.00;;;;;;;;;;4912261;29;20739;-73
2023/12/18 01:07:57;;;;;;;36.77;14.13;;;;;;;;;;4926367;29;20229;-74
2023/12/18 01:10:22;;;;;;;33.10;14.07;;;;;;;;;;4924627;29;20261;-74
2023/12/18 01:12:47;;;;;;;32.10;14.57;;;;;;;;;;4925088;29;20741;-74
2023/12/18 01:15:13;;;;;;;33.63;14.63;;;;;;;;;;4905513;29;20285;-74
2023/12/18 01:17:38;;;;;;;33.67;13.77;;;;;;;;;;4926261;29;20231;-73
2023/12/18 01:20:05;;;;;;;33.17;14.23;;;;;;;;;;4910660;29;20225;-73
2023/12/18 01:22:30;;;;;;;49.90;21.03;;;;;;;;;;4924686;29;20241;-74
2023/12/18 01:24:55;;;;;;;41.80;17.03;;;;;;;;;;4910061;29;20228;-74
2023/12/18 01:27:21;;;;;;;35.17;14.43;;;;;;;;;;4899429;29;20236;-73
2023/12/18 01:29:46;;;;;;;37.33;14.73;;;;;;;;;;4925649;29;20727;-74
2023/12/18 01:32:11;;;;;;;41.40;16.53;;;;;;;;;;4925493;29;20703;-74
2023/12/18 01:34:38;;;;;;;58.37;22.70;;;;;;;;;;4924249;29;20273;-74
2023/12/18 01:37:05;;;;;;;43.70;17.30;;;;;;;;;;4907795;29;20231;-73
2023/12/18 01:39:31;;;;;;;48.43;19.10;;;;;;;;;;4908862;29;20711;-74
2023/12/18 01:41:56;;;;;;;48.57;19.20;;;;;;;;;;4908972;29;20231;-73
2023/12/18 01:44:21;;;;;;;62.57;22.03;;;;;;;;;;4939533;29;20381;-74
2023/12/18 01:46:47;;;;;;;52.80;21.47;;;;;;;;;;4908507;29;20222;-74
2023/12/18 01:49:12;;;;;;;56.40;21.67;;;;;;;;;;4925863;29;20617;-75
2023/12/18 01:51:37;;;;;;;50.80;20.63;;;;;;;;;;4924581;29;20643;-74
2023/12/18 01:54:03;;;;;;;52.37;21.20;;;;;;;;;;4905444;29;20226;-74
2023/12/18 01:56:30;;;;;;;51.13;20.30;;;;;;;;;;4922577;29;20626;-74
2023/12/18 01:58:58;;;;;;;49.20;19.07;;;;;;;;;;4909390;29;20316;-74
2023/12/18 02:01:23;;;;;;;53.03;19.63;;;;;;;;;;4924148;29;20248;-73
2023/12/18 02:03:48;;;;;;;49.97;20.10;;;;;;;;;;4924604;29;20952;-73
2023/12/18 02:06:14;;;;;;;49.07;19.77;;;;;;;;;;4924013;29;20604;-73
2023/12/18 02:08:39;;;;;;;48.37;19.77;;;;;;;;;;4908448;29;20218;-74
2023/12/18 02:11:05;;;;;;;56.60;21.07;;;;;;;;;;4924450;29;20741;-73
2023/12/18 02:13:30;;;;;;;58.13;22.77;;;;;;;;;;4927876;29;20280;-74
2023/12/18 02:15:56;;;;;;;62.23;24.33;;;;;;;;;;4914704;29;20247;-74
2023/12/18 02:18:21;;;;;;;50.77;20.23;;;;;;;;;;4923042;29;20672;-74
2023/12/18 02:20:47;;;;;;;49.80;21.07;;;;;;;;;;4937933;29;20221;-74
2023/12/18 02:23:12;;;;;;;58.00;21.83;;;;;;;;;;4930195;29;20225;-74
2023/12/18 02:25:37;;;;;;;53.33;20.90;;;;;;;;;;4929314;29;20900;-73
2023/12/18 02:28:03;;;;;;;58.47;22.73;;;;;;;;;;4930887;29;20304;-74
2023/12/18 02:30:28;;;;;;;59.37;22.37;;;;;;;;;;4914089;29;20229;-74
2023/12/18 02:32:53;;;;;;;51.97;21.33;;;;;;;;;;4914300;29;20252;-74
2023/12/18 02:35:19;;;;;;;53.90;21.30;;;;;;;;;;4930561;29;20252;-74
2023/12/18 02:37:44;;;;;;;52.30;20.53;;;;;;;;;;4930258;29;20225;-74
2023/12/18 02:40:10;;;;;;;51.70;20.83;;;;;;;;;;4931188;29;20229;-74
2023/12/18 02:42:35;;;;;;;55.03;22.70;;;;;;;;;;4930783;29;20229;-74
2023/12/18 02:45:01;;;;;;;49.63;21.30;;;;;;;;;;4930026;29;20217;-73
2023/12/18 02:47:26;;;;;;;57.53;24.03;;;;;;;;;;4929922;29;20267;-74
2023/12/18 02:49:52;;;;;;;60.53;24.53;;;;;;;;;;4931721;29;20304;-73
2023/12/18 02:52:18;;;;;;;61.63;24.53;;;;;;;;;;4910889;29;20305;-74
2023/12/18 02:54:43;;;;;;;55.60;22.93;;;;;;;;;;4929836;29;20217;-74
2023/12/18 02:57:08;;;;;;;88.60;30.57;;;;;;;;;;4926401;29;20222;-74
2023/12/18 02:59:34;;;;;;;66.30;25.07;;;;;;;;;;4929787;29;20300;-73
2023/12/18 03:01:59;;;;;;;59.50;21.87;;;;;;;;;;4930261;29;20248;-74
2023/12/18 03:04:24;;;;;;;51.60;20.80;;;;;;;;;;4928114;29;20242;-73
2023/12/18 03:06:51;;;;;;;47.17;19.23;;;;;;;;;;4914144;29;20682;-74
2023/12/18 03:09:16;;;;;;;49.07;19.37;;;;;;;;;;4913263;29;20229;-74
2023/12/18 03:11:42;;;;;;;45.67;19.37;;;;;;;;;;4914089;29;20228;-74
2023/12/18 03:14:08;;;;;;;46.73;18.97;;;;;;;;;;4929988;29;20233;-73
2023/12/18 03:16:34;;;;;;;51.27;19.93;;;;;;;;;;4929688;29;20229;-75
2023/12/18 03:18:59;;;;;;;49.23;20.33;;;;;;;;;;4913938;29;20610;-73
2023/12/18 03:21:25;;;;;;;48.90;19.17;;;;;;;;;;4929327;29;20229;-74
2023/12/18 03:23:50;;;;;;;46.80;18.97;;;;;;;;;;4909874;29;20230;-73
2023/12/18 03:26:15;;;;;;;47.87;19.00;;;;;;;;;;4907318;29;20233;-74
2023/12/18 03:28:41;;;;;;;45.60;18.67;;;;;;;;;;4910957;29;20595;-74
2023/12/18 03:31:06;;;;;;;51.03;21.50;;;;;;;;;;4926527;29;20244;-74
2023/12/18 03:33:31;;;;;;;49.60;20.77;;;;;;;;;;4926074;29;20238;-73
2023/12/18 03:35:57;;;;;;;53.67;21.20;;;;;;;;;;4909952;29;20236;-73
2023/12/18 03:38:22;;;;;;;47.97;20.10;;;;;;;;;;4925948;29;20308;-73
2023/12/18 03:40:47;;;;;;;54.40;22.17;;;;;;;;;;4910585;29;20232;-73
2023/12/18 03:43:13;;;;;;;48.33;19.50;;;;;;;;;;4907145;29;20226;-73
2023/12/18 03:45:38;;;;;;;49.43;19.63;;;;;;;;;;4926979;29;20225;-73
2023/12/18 03:48:04;;;;;;;52.47;20.07;;;;;;;;;;4926087;29;20229;-73
2023/12/18 03:50:29;;;;;;;46.53;18.53;;;;;;;;;;4927258;29;20237;-73
2023/12/18 03:52:54;;;;;;;45.33;18.27;;;;;;;;;;4926828;29;20229;-73
2023/12/18 03:55:20;;;;;;;45.40;17.93;;;;;;;;;;4909549;29;20233;-73
2023/12/18 03:57:45;;;;;;;48.63;18.47;;;;;;;;;;4909835;29;20234;-74
2023/12/18 04:00:11;;;;;;;49.17;19.27;;;;;;;;;;4907274;29;20233;-73
2023/12/18 04:02:36;;;;;;;50.50;19.67;;;;;;;;;;4910706;29;20746;-73
2023/12/18 04:05:01;;;;;;;55.73;21.13;;;;;;;;;;4927655;29;20229;-73
2023/12/18 04:07:27;;;;;;;49.27;19.40;;;;;;;;;;4925171;29;20237;-73
2023/12/18 04:09:52;;;;;;;51.47;20.43;;;;;;;;;;4926161;29;20293;-73
2023/12/18 04:12:17;;;;;;;43.93;18.67;;;;;;;;;;4926223;29;20244;-74
2023/12/18 04:14:43;;;;;;;47.93;18.50;;;;;;;;;;4925897;29;20749;-73
2023/12/18 04:17:08;;;;;;;44.77;17.83;;;;;;;;;;4925040;29;20232;-74
2023/12/18 04:19:34;;;;;;;62.20;23.30;;;;;;;;;;4925310;29;20267;-74
2023/12/18 04:21:59;;;;;;;48.97;19.30;;;;;;;;;;4926061;29;20728;-74
2023/12/18 04:24:24;;;;;;;47.40;18.63;;;;;;;;;;4909513;29;20805;-74
2023/12/18 04:26:50;;;;;;;45.70;18.87;;;;;;;;;;4925474;29;20229;-74
2023/12/18 04:29:16;;;;;;;44.77;18.17;;;;;;;;;;4924743;29;20244;-74
2023/12/18 04:31:42;;;;;;;50.33;20.73;;;;;;;;;;4927836;29;20324;-73
2023/12/18 04:34:07;;;;;;;61.67;23.53;;;;;;;;;;4926055;29;20332;-74
2023/12/18 04:36:36;;;;;;;60.43;22.80;;;;;;;;;;4924082;29;20243;-74
2023/12/18 04:39:02;;;;;;;59.30;22.03;;;;;;;;;;4925620;29;20226;-72
2023/12/18 04:41:27;;;;;;;51.77;21.10;;;;;;;;;;4926538;29;20248;-75
2023/12/18 04:43:52;;;;;;;55.60;20.93;;;;;;;;;;4926991;29;21102;-73
2023/12/18 04:46:18;;;;;;;51.80;20.33;;;;;;;;;;4924982;29;20678;-73
2023/12/18 04:48:43;;;;;;;52.87;20.37;;;;;;;;;;4906376;29;20234;-74
2023/12/18 04:51:09;;;;;;;50.50;19.73;;;;;;;;;;4905379;29;20256;-74
2023/12/18 04:53:34;;;;;;;52.97;20.67;;;;;;;;;;4909106;29;20236;-73
2023/12/18 04:55:59;;;;;;;51.50;20.30;;;;;;;;;;4925515;29;20312;-74
2023/12/18 04:58:25;;;;;;;57.97;22.33;;;;;;;;;;4908445;29;20233;-73
2023/12/18 05:00:50;;;;;;;64.57;23.60;;;;;;;;;;4925339;29;20316;-74
2023/12/18 05:03:15;;;;;;;57.20;21.83;;;;;;;;;;4924906;29;20806;-73
2023/12/18 05:05:41;;;;;;;56.27;21.57;;;;;;;;;;4909598;29;20704;-74
2023/12/18 05:08:06;;;;;;;53.53;21.60;;;;;;;;;;4910047;29;20247;-74
2023/12/18 05:10:31;;;;;;;57.43;22.67;;;;;;;;;;4925718;29;20229;-74
2023/12/18 05:12:57;;;;;;;57.97;22.43;;;;;;;;;;4909833;29;20236;-74
2023/12/18 05:15:22;;;;;;;54.03;22.33;;;;;;;;;;4925433;29;20332;-74
2023/12/18 05:17:48;;;;;;;53.40;21.63;;;;;;;;;;4927579;29;20236;-74
2023/12/18 05:20:14;;;;;;;55.27;22.53;;;;;;;;;;4909473;29;20261;-74
2023/12/18 05:22:39;;;;;;;54.73;23.23;;;;;;;;;;4925912;29;20285;-74
2023/12/18 05:25:04;;;;;;;60.37;24.73;;;;;;;;;;4925896;29;20313;-74
2023/12/18 05:27:30;;;;;;;61.03;24.07;;;;;;;;;;4924143;29;20976;-74
2023/12/18 05:29:55;;;;;;;63.90;24.53;;;;;;;;;;4928366;29;20297;-73
2023/12/18 05:32:20;;;;;;;68.13;26.33;;;;;;;;;;4924206;29;20233;-72
2023/12/18 05:34:48;;;;;;;76.67;29.33;;;;;;;;;;4923891;29;20224;-73
2023/12/18 05:37:13;;;;;;;98.27;33.90;;;;;;;;;;4924391;29;20217;-72
2023/12/18 05:39:38;;;;;;;89.70;33.53;;;;;;;;;;4925718;29;20284;-72
2023/12/18 05:42:04;;;;;;;93.63;34.53;;;;;;;;;;4885078;29;20309;-72
2023/12/18 05:44:29;;;;;;;109.47;38.43;;;;;;;;;;4904369;29;20652;-72
2023/12/18 05:46:55;;;;;;;117.63;39.37;;;;;;;;;;4891033;29;20229;-72
2023/12/18 05:49:20;;;;;;;124.00;40.63;;;;;;;;;;4911215;29;20800;-72
2023/12/18 05:51:46;;;;;;;112.67;39.63;;;;;;;;;;4885219;29;20237;-73
2023/12/18 05:54:11;;;;;;;121.07;39.33;;;;;;;;;;4917070;29;20229;-72
2023/12/18 05:56:37;;;;;;;105.50;36.53;;;;;;;;;;4929288;29;20794;-71
2023/12/18 05:59:02;;;;;;;103.27;35.13;;;;;;;;;;4926086;29;20240;-71
2023/12/18 06:01:27;;;;;;;91.20;33.37;;;;;;;;;;4925847;29;20348;-72
2023/12/18 06:03:53;;;;;;;84.50;31.40;;;;;;;;;;4911413;29;20218;-71
2023/12/18 06:06:18;;;;;;;84.77;31.43;;;;;;;;;;4909998;29;20245;-71
2023/12/18 06:08:47;;;;;;;85.33;31.07;;;;;;;;;;4896167;29;20229;-72
2023/12/18 06:11:15;;;;;;;84.80;30.63;;;;;;;;;;4914033;29;20237;-73
2023/12/18 06:13:40;;;;;;;83.20;31.20;;;;;;;;;;4894130;29;20249;-75
2023/12/18 06:16:06;;;;;;;86.83;31.33;;;;;;;;;;4912450;29;20296;-74
2023/12/18 06:18:31;;;;;;;72.67;29.17;;;;;;;;;;4910074;29;20229;-74
2023/12/18 06:21:01;;;;;;;80.20;30.33;;;;;;;;;;4909983;29;20228;-74
2023/12/18 06:23:28;;;;;;;77.30;31.03;;;;;;;;;;4911753;29;20229;-75
2023/12/18 06:25:53;;;;;;;77.10;30.63;;;;;;;;;;4912200;29;20217;-74
2023/12/18 06:28:18;;;;;;;85.10;33.17;;;;;;;;;;4893269;29;20235;-74
2023/12/18 06:30:44;;;;;;;92.20;37.30;;;;;;;;;;4911648;29;20229;-73
2023/12/18 06:33:09;;;;;;;103.73;38.57;;;;;;;;;;4912361;29;20224;-74
2023/12/18 06:35:35;;;;;;;105.23;38.73;;;;;;;;;;4909702;29;20225;-74
2023/12/18 06:38:00;;;;;;;107.77;39.83;;;;;;;;;;4894116;29;20242;-73
2023/12/18 06:40:25;;;;;;;102.90;38.90;;;;;;;;;;4909702;29;20229;-73
2023/12/18 06:42:50;;;;;;;92.93;37.63;;;;;;;;;;4915098;29;20236;-75
2023/12/18 06:45:16;;;;;;;96.87;38.23;;;;;;;;;;4905835;29;20225;-73
2023/12/18 06:47:41;;;;;;;96.03;37.90;;;;;;;;;;4922654;29;20332;-74
2023/12/18 06:50:07;;;;;;;103.60;38.40;;;;;;;;;;4923160;29;20827;-74
2023/12/18 06:52:32;;;;;;;95.43;38.27;;;;;;;;;;4919247;29;20965;-74
2023/12/18 06:54:57;;;;;;;96.90;37.30;;;;;;;;;;4912332;29;20209;-71
2023/12/18 06:57:23;;;;;;;93.33;37.20;;;;;;;;;;4922623;29;20317;-71
2023/12/18 06:59:48;;;;;;;99.70;38.60;;;;;;;;;;4926568;29;20305;-74
2023/12/18 07:02:14;;;;;;;97.27;36.37;;;;;;;;;;4909826;29;20239;-74
2023/12/18 07:04:39;;;;;;;94.33;36.10;;;;;;;;;;4927166;29;20224;-73
2023/12/18 07:07:04;;;;;;;90.23;36.00;;;;;;;;;;4927632;29;20263;-74
2023/12/18 07:09:30;;;;;;;92.63;35.70;;;;;;;;;;4926484;29;20300;-73
2023/12/18 07:11:55;;;;;;;92.70;34.80;;;;;;;;;;4908755;29;20245;-74
2023/12/18 07:14:21;;;;;;;78.00;31.67;;;;;;;;;;4909529;29;20253;-74
2023/12/18 07:16:46;;;;;;;78.43;31.50;;;;;;;;;;4910774;29;20284;-74
2023/12/18 07:19:11;;;;;;;83.07;32.57;;;;;;;;;;4917182;29;20233;-73
2023/12/18 07:21:37;;;;;;;76.07;31.63;;;;;;;;;;4910666;29;20587;-74
2023/12/18 07:24:02;;;;;;;75.90;30.63;;;;;;;;;;4927058;29;20729;-74
2023/12/18 07:26:28;;;;;;;75.07;31.27;;;;;;;;;;4902645;29;20240;-75
2023/12/18 07:28:53;;;;;;;68.20;28.57;;;;;;;;;;4927121;29;20702;-75
2023/12/18 07:31:19;;;;;;;67.00;26.93;;;;;;;;;;4928140;29;20245;-74
2023/12/18 07:33:44;;;;;;;98.50;38.63;;;;;;;;;;4911010;29;20720;-73
2023/12/18 07:36:10;;;;;;;69.23;28.87;;;;;;;;;;4911589;29;20336;-74
2023/12/18 07:38:35;;;;;;;64.67;26.97;;;;;;;;;;4916700;29;20237;-74
2023/12/18 07:41:02;;;;;;;85.90;36.13;;;;;;;;;;4926962;29;20252;-73
2023/12/18 07:43:27;;;;;;;66.00;28.93;;;;;;;;;;4927608;29;20726;-74
2023/12/18 07:45:53;;;;;;;84.53;37.00;;;;;;;;;;4927379;29;20225;-75
2023/12/18 07:48:21;;;;;;;69.80;28.53;;;;;;;;;;4927796;29;20244;-74
2023/12/18 07:50:47;;;;;;;66.53;28.00;;;;;;;;;;4926623;29;20222;-74
2023/12/18 07:53:12;;;;;;;68.70;28.27;;;;;;;;;;4927373;29;20228;-73
2023/12/18 07:55:39;;;;;;;72.80;31.80;;;;;;;;;;4909487;29;20221;-73
2023/12/18 07:58:04;;;;;;;67.53;29.03;;;;;;;;;;4910967;29;20229;-73
2023/12/18 08:00:29;;;;;;;65.37;27.77;;;;;;;;;;4925769;29;20222;-73
2023/12/18 08:02:55;;;;;;;64.23;27.50;;;;;;;;;;4927004;29;20324;-73
2023/12/18 08:05:20;;;;;;;59.47;26.33;;;;;;;;;;4925973;29;20256;-74
2023/12/18 08:07:46;;;;;;;64.97;26.80;;;;;;;;;;4927871;29;20229;-74
2023/12/18 08:10:12;;;;;;;64.77;26.73;;;;;;;;;;4927371;29;20213;-74
2023/12/18 08:12:38;;;;;;;77.53;30.93;;;;;;;;;;4909587;29;20264;-74
2023/12/18 08:15:03;;;;;;;85.10;33.93;;;;;;;;;;4914613;29;20280;-74
2023/12/18 08:17:29;;;;;;;93.47;37.10;;;;;;;;;;4908047;29;20936;-74
2023/12/18 08:19:54;;;;;;;90.57;37.07;;;;;;;;;;4924363;29;20342;-74
2023/12/18 08:22:20;;;;;;;98.27;38.17;;;;;;;;;;4927387;29;20237;-74
2023/12/18 08:24:45;;;;;;;102.40;38.90;;;;;;;;;;4926605;29;20225;-73
2023/12/18 08:27:10;;;;;;;95.97;37.37;;;;;;;;;;4927362;29;20269;-75
2023/12/18 08:29:38;;;;;;;98.57;36.83;;;;;;;;;;4928070;29;20304;-74
2023/12/18 08:32:03;;;;;;;95.83;37.47;;;;;;;;;;4928231;29;20229;-74
2023/12/18 08:34:29;;;;;;;88.30;34.77;;;;;;;;;;4927203;29;20237;-74
2023/12/18 08:36:54;;;;;;;89.03;35.13;;;;;;;;;;4906767;29;20217;-76
2023/12/18 08:39:19;;;;;;;82.50;34.57;;;;;;;;;;4890488;29;20238;-73
2023/12/18 08:41:47;;;;;;;90.37;33.47;;;;;;;;;;4904871;29;20222;-75
2023/12/18 08:44:12;;;;;;;77.83;33.13;;;;;;;;;;4911284;29;20225;-74
2023/12/18 08:46:38;;;;;;;83.50;35.57;;;;;;;;;;4910478;29;20233;-74
2023/12/18 08:49:03;;;;;;;85.63;33.23;;;;;;;;;;4926728;29;20221;-73
2023/12/18 08:51:29;;;;;;;85.03;35.17;;;;;;;;;;4927185;29;20336;-72
2023/12/18 08:53:55;;;;;;;88.73;35.47;;;;;;;;;;4909074;29;20975;-74
2023/12/18 08:56:21;;;;;;;83.63;35.03;;;;;;;;;;4911536;29;20226;-73
2023/12/18 08:58:46;;;;;;;85.60;34.63;;;;;;;;;;4920572;29;20232;-74
2023/12/18 09:01:12;;;;;;;89.83;35.63;;;;;;;;;;4926341;29;20607;-74
2023/12/18 09:03:37;;;;;;;78.23;33.70;;;;;;;;;;4926096;29;20949;-74
2023/12/18 09:06:03;;;;;;;82.07;33.17;;;;;;;;;;4926803;29;20292;-72
2023/12/18 09:08:28;;;;;;;76.17;32.23;;;;;;;;;;4925977;29;21230;-74
2023/12/18 09:10:54;;;;;;;77.57;32.43;;;;;;;;;;4927993;29;20233;-74
2023/12/18 09:13:19;;;;;;;77.43;30.20;;;;;;;;;;4925423;29;21022;-74
2023/12/18 09:15:44;;;;;;;76.87;31.40;;;;;;;;;;4910176;29;20735;-73
2023/12/18 09:18:10;;;;;;;74.63;31.27;;;;;;;;;;4926302;29;20237;-73
2023/12/18 09:20:36;;;;;;;69.53;30.07;;;;;;;;;;4909904;29;20328;-73
2023/12/18 09:23:05;;;;;;;72.07;30.33;;;;;;;;;;4908293;29;20236;-73
2023/12/18 09:25:30;;;;;;;72.70;30.63;;;;;;;;;;4907778;29;20236;-74
2023/12/18 09:27:55;;;;;;;73.07;30.10;;;;;;;;;;4925621;29;20232;-75
2023/12/18 09:30:21;;;;;;;65.77;28.33;;;;;;;;;;4925066;29;20225;-72
2023/12/18 09:32:46;;;;;;;74.47;31.97;;;;;;;;;;4906104;29;20249;-73
2023/12/18 09:35:11;;;;;;;76.33;30.97;;;;;;;;;;4907686;29;20335;-74
2023/12/18 09:37:37;;;;;;;73.67;30.43;;;;;;;;;;4925028;29;20229;-74
2023/12/18 09:40:03;;;;;;;82.77;32.70;;;;;;;;;;4925653;29;20884;-73
2023/12/18 09:42:28;;;;;;;70.63;30.43;;;;;;;;;;4924023;29;20248;-74
2023/12/18 09:44:56;;;;;;;77.13;30.97;;;;;;;;;;4925847;29;20707;-73
2023/12/18 09:47:22;;;;;;;73.50;30.40;;;;;;;;;;4908433;29;20309;-73
2023/12/18 09:49:47;;;;;;;72.27;30.13;;;;;;;;;;4910071;29;20308;-74
2023/12/18 09:52:12;;;;;;;68.27;29.80;;;;;;;;;;4909371;29;20237;-73
2023/12/18 09:54:40;;;;;;;74.77;32.43;;;;;;;;;;4925208;29;20763;-74
2023/12/18 09:57:05;;;;;;;71.53;31.97;;;;;;;;;;4927138;29;20229;-74
2023/12/18 09:59:31;;;;;;;75.50;32.23;;;;;;;;;;4909481;29;20230;-73
2023/12/18 10:01:56;;;;;;;97.43;38.57;;;;;;;;;;4909843;29;20323;-74
2023/12/18 10:04:22;;;;;;;83.27;33.50;;;;;;;;;;4926217;29;20237;-74
2023/12/18 10:06:48;;;;;;;71.77;30.40;;;;;;;;;;4926847;29;20236;-74
2023/12/18 10:09:14;;;;;;;68.73;28.43;;;;;;;;;;4899737;29;20225;-73
2023/12/18 10:11:39;;;;;;;62.90;24.97;;;;;;;;;;4926580;29;20245;-74
2023/12/18 10:14:04;;;;;;;58.17;25.00;;;;;;;;;;4909917;29;20229;-74
2023/12/18 10:16:30;;;;;;;58.53;25.57;;;;;;;;;;4924881;29;20225;-74
2023/12/18 10:18:57;;;;;;;55.43;24.20;;;;;;;;;;4910781;29;20225;-73
2023/12/18 10:21:25;;;;;;;57.37;24.50;;;;;;;;;;4926047;29;20209;-73
2023/12/18 10:23:53;;;;;;;81.93;32.97;;;;;;;;;;4926854;29;20284;-73
2023/12/18 10:26:18;;;;;;;202.37;49.90;;;;;;;;;;4924610;29;20908;-72
2023/12/18 10:28:44;;;;;;;117.53;36.63;;;;;;;;;;4925581;29;20235;-73
2023/12/18 10:31:09;;;;;;;129.77;36.97;;;;;;;;;;4908778;29;20666;-73
2023/12/18 10:33:35;;;;;;;102.80;33.37;;;;;;;;;;4908993;29;20233;-74
2023/12/18 10:36:00;;;;;;;186.87;48.80;;;;;;;;;;4912815;29;20703;-73
2023/12/18 10:38:27;;;;;;;59.97;25.93;;;;;;;;;;4912065;29;20253;-74
2023/12/18 10:40:54;;;;;;;65.43;26.13;;;;;;;;;;4912445;29;20707;-74
2023/12/18 10:43:25;;;;;;;57.77;25.20;;;;;;;;;;4927469;29;20213;-73
2023/12/18 10:45:54;;;;;;;57.77;25.67;;;;;;;;;;4910968;29;20221;-74
2023/12/18 10:48:19;;;;;;;73.50;28.40;;;;;;;;;;4927574;29;20240;-74
2023/12/18 10:50:45;;;;;;;192.43;89.07;;;;;;;;;;4927566;29;20229;-73
2023/12/18 10:53:11;;;;;;;121.30;53.23;;;;;;;;;;4910929;29;20288;-74
2023/12/18 10:55:37;;;;;;;77.03;34.77;;;;;;;;;;4928139;29;20746;-73
2023/12/18 10:58:03;;;;;;;74.90;34.10;;;;;;;;;;4928239;29;20227;-73
2023/12/18 11:00:28;;;;;;;132.10;64.40;;;;;;;;;;4909152;29;20249;-73
2023/12/18 11:02:54;;;;;;;81.57;38.07;;;;;;;;;;4912469;29;20233;-74
2023/12/18 11:05:20;;;;;;;93.83;43.50;;;;;;;;;;4927755;29;20317;-74
2023/12/18 11:07:45;;;;;;;72.77;31.13;;;;;;;;;;4929408;29;20308;-74
2023/12/18 11:10:10;;;;;;;88.70;41.60;;;;;;;;;;4930333;29;20229;-73
2023/12/18 11:12:37;;;;;;;83.70;37.67;;;;;;;;;;4911458;29;20715;-74
2023/12/18 11:15:05;;;;;;;74.13;34.50;;;;;;;;;;4928806;29;20838;-73
2023/12/18 11:17:39;;;;;;;69.07;31.47;;;;;;;;;;4928952;29;20312;-74
2023/12/18 11:20:16;;;;;;;68.70;30.47;;;;;;;;;;4905820;29;20294;-74
2023/12/18 11:22:45;;;;;;;83.43;38.87;;;;;;;;;;4913114;29;20232;-74
2023/12/18 11:25:10;;;;;;;93.20;44.77;;;;;;;;;;4914070;29;20229;-73
2023/12/18 11:27:36;;;;;;;73.80;33.13;;;;;;;;;;4910179;29;20234;-73
2023/12/18 11:30:01;;;;;;;73.53;32.50;;;;;;;;;;4911466;29;20305;-74
2023/12/18 11:32:39;;;;;;;74.67;32.67;;;;;;;;;;4910465;29;20266;-75
2023/12/18 11:35:04;;;;;;;73.23;31.50;;;;;;;;;;4908991;29;20214;-74
2023/12/18 11:37:29;;;;;;;73.47;33.53;;;;;;;;;;4910863;29;20234;-73
2023/12/18 11:39:55;;;;;;;69.33;31.57;;;;;;;;;;4925002;29;20230;-74
2023/12/18 11:42:38;;;;;;;79.93;30.93;;;;;;;;;;4909646;29;20342;-73
2023/12/18 11:45:04;;;;;;;63.67;27.40;;;;;;;;;;4908661;29;20313;-74
2023/12/18 11:47:29;;;;;;;68.17;29.77;;;;;;;;;;4907273;29;20309;-74
2023/12/18 11:49:54;;;;;;;82.53;34.27;;;;;;;;;;4921388;29;20347;-74
2023/12/18 11:52:20;;;;;;;75.30;33.43;;;;;;;;;;4926628;29;20360;-74
2023/12/18 11:54:45;;;;;;;72.87;32.77;;;;;;;;;;4911420;29;20217;-74
2023/12/18 11:57:16;;;;;;;66.40;29.43;;;;;;;;;;4910952;29;20268;-73
2023/12/18 11:59:41;;;;;;;80.70;37.53;;;;;;;;;;4925920;29;20221;-73
2023/12/18 12:02:07;;;;;;;83.33;34.53;;;;;;;;;;4910019;29;20232;-74
2023/12/18 12:04:32;;;;;;;78.27;34.73;;;;;;;;;;4911141;29;20229;-73
2023/12/18 12:06:58;;;;;;;83.23;35.50;;;;;;;;;;4926176;29;20241;-74
2023/12/18 12:09:23;;;;;;;94.10;38.47;;;;;;;;;;4925773;29;20225;-74
2023/12/18 12:11:48;;;;;;;65.47;30.80;;;;;;;;;;4926480;29;20261;-72
2023/12/18 12:14:14;;;;;;;75.73;35.33;;;;;;;;;;4907995;29;20771;-74
2023/12/18 12:16:39;;;;;;;73.60;32.17;;;;;;;;;;4926471;29;20217;-72
2023/12/18 12:19:04;;;;;;;77.23;36.93;;;;;;;;;;4909739;29;21047;-73
2023/12/18 12:21:30;;;;;;;86.93;42.20;;;;;;;;;;4911023;29;20226;-73
2023/12/18 12:23:56;;;;;;;72.70;35.10;;;;;;;;;;4929817;29;20226;-73
2023/12/18 12:26:22;;;;;;;59.67;27.73;;;;;;;;;;4922370;29;20718;-73
2023/12/18 12:28:48;;;;;;;62.00;28.27;;;;;;;;;;4912832;29;20206;-73
2023/12/18 12:31:16;;;;;;;58.63;27.50;;;;;;;;;;4928980;29;20289;-73
2023/12/18 12:33:42;;;;;;;58.93;28.23;;;;;;;;;;4929502;29;20222;-72
2023/12/18 12:36:07;;;;;;;62.60;28.27;;;;;;;;;;4926889;29;20229;-73
2023/12/18 12:38:36;;;;;;;63.70;27.83;;;;;;;;;;4928226;29;22862;-73
2023/12/18 12:41:02;;;;;;;68.13;29.37;;;;;;;;;;4929867;29;20304;-73
2023/12/18 12:43:27;;;;;;;66.77;29.63;;;;;;;;;;4929006;29;20225;-73
2023/12/18 12:45:52;;;;;;;61.90;28.00;;;;;;;;;;4927585;29;20304;-74
2023/12/18 12:48:18;;;;;;;58.70;26.53;;;;;;;;;;4907246;29;20266;-73
2023/12/18 12:50:44;;;;;;;59.07;26.93;;;;;;;;;;4910143;29;20230;-74
2023/12/18 12:53:09;;;;;;;66.87;28.43;;;;;;;;;;4926443;29;20236;-73
2023/12/18 12:55:40;;;;;;;46.47;21.67;;;;;;;;;;4920468;29;20233;-72
2023/12/18 12:58:06;;;;;;;72.90;31.63;;;;;;;;;;4924298;29;20766;-72
2023/12/18 13:00:32;;;;;;;68.70;30.37;;;;;;;;;;4925048;29;20233;-73
2023/12/18 13:02:57;;;;;;;72.77;32.67;;;;;;;;;;4910261;29;20724;-73
2023/12/18 13:05:22;;;;;;;76.47;33.07;;;;;;;;;;4926887;29;20252;-73
2023/12/18 13:07:50;;;;;;;78.60;33.57;;;;;;;;;;4926220;29;20638;-73
2023/12/18 13:10:15;;;;;;;41.90;19.67;;;;;;;;;;4924612;29;20274;-73
2023/12/18 13:12:40;;;;;;;25.33;12.33;;;;;;;;;;4926161;29;20711;-72
2023/12/18 13:15:06;;;;;;;29.43;13.53;;;;;;;;;;4925604;29;20475;-72
2023/12/18 13:17:31;;;;;;;63.03;26.43;;;;;;;;;;4924082;29;20230;-73
2023/12/18 13:19:57;;;;;;;71.70;32.27;;;;;;;;;;4927121;29;20324;-73
2023/12/18 13:22:22;;;;;;;74.03;33.10;;;;;;;;;;4925548;29;20240;-72
2023/12/18 13:24:47;;;;;;;77.80;35.83;;;;;;;;;;4925078;29;20247;-73
2023/12/18 13:27:13;;;;;;;72.77;32.20;;;;;;;;;;4908967;29;20232;-73
2023/12/18 13:29:41;;;;;;;74.23;33.23;;;;;;;;;;4924358;29;20352;-74
2023/12/18 13:32:06;;;;;;;56.03;26.33;;;;;;;;;;4925157;29;20393;-73
2023/12/18 13:34:32;;;;;;;91.77;39.67;;;;;;;;;;4925522;29;20736;-74
2023/12/18 13:36:57;;;;;;;87.70;37.77;;;;;;;;;;4926528;29;20224;-73
2023/12/18 13:39:23;;;;;;;76.30;34.67;;;;;;;;;;4908829;29;20726;-74
2023/12/18 13:41:48;;;;;;;22.70;10.93;;;;;;;;;;4911555;29;20301;-72
2023/12/18 13:44:14;;;;;;;52.03;20.77;;;;;;;;;;4927388;29;20225;-73
2023/12/18 13:46:39;;;;;;;65.33;30.13;;;;;;;;;;4927827;29;20781;-73
2023/12/18 13:49:05;;;;;;;39.03;17.80;;;;;;;;;;4907010;29;20237;-71
2023/12/18 13:51:32;;;;;;;48.77;22.23;;;;;;;;;;4927064;29;20645;-72
2023/12/18 13:53:58;;;;;;;18.83;8.77;;;;;;;;;;4911204;29;20225;-72
2023/12/18 13:56:23;;;;;;;60.30;24.60;;;;;;;;;;4909709;29;20244;-72
2023/12/18 13:58:48;;;;;;;100.97;42.90;;;;;;;;;;4922886;29;20790;-71
2023/12/18 14:01:14;;;;;;;111.33;41.07;;;;;;;;;;4923670;29;20996;-72
2023/12/18 14:03:39;;;;;;;55.63;25.03;;;;;;;;;;4926954;29;20742;-72
2023/12/18 14:06:04;;;;;;;61.20;27.57;;;;;;;;;;4909976;29;20628;-72